sensor_id;sensor_type;location;lat;lon;timestamp;pressure;altitude;pressure_sealevel;temperature;humidity
14269;BME280;7218;51.480;7.006;2023-03-14T00:01:24;98101.38;;;13.75;80.58
14269;BME280;7218;51.480;7.006;2023-03-14T00:03:51;98099.44;;;13.39;83.41
14269;BME280;7218;51.480;7.006;2023-03-14T00:06:18;98096.59;;;13.29;83.56
14269;BME280;7218;51.480;7.006;2023-03-14T00:08:45;98085.97;;;13.70;81.52
14269;BME280;7218;51.480;7.006;2023-03-14T00:11:14;98076.28;;;13.46;82.50
14269;BME280;7218;51.480;7.006;2023-03-14T00:13:43;98063.75;;;13.51;82.11
14269;BME280;7218;51.480;7.006;2023-03-14T00:16:11;98052.28;;;13.26;83.06
14269;BME280;7218;51.480;7.006;2023-03-14T00:18:38;98052.19;;;13.28;82.51
14269;BME280;7218;51.480;7.006;2023-03-14T00:21:07;98056.56;;;13.15;82.80
14269;BME280;7218;51.480;7.006;2023-03-14T00:23:35;98042.81;;;13.76;80.17
14269;BME280;7218;51.480;7.006;2023-03-14T00:26:03;98029.47;;;13.41;82.06
14269;BME280;7218;51.480;7.006;2023-03-14T00:28:30;98023.56;;;13.77;79.82
14269;BME280;7218;51.480;7.006;2023-03-14T00:30:59;98025.75;;;13.96;79.81
14269;BME280;7218;51.480;7.006;2023-03-14T00:33:28;98044.13;;;13.31;82.70
14269;BME280;7218;51.480;7.006;2023-03-14T00:35:55;98055.25;;;13.47;82.10
14269;BME280;7218;51.480;7.006;2023-03-14T00:38:22;98073.31;;;13.64;81.80
14269;BME280;7218;51.480;7.006;2023-03-14T00:40:49;98078.59;;;13.38;83.13
14269;BME280;7218;51.480;7.006;2023-03-14T00:43:16;98091.38;;;13.42;82.27
14269;BME280;7218;51.480;7.006;2023-03-14T00:45:43;98098.47;;;13.40;82.52
14269;BME280;7218;51.480;7.006;2023-03-14T00:48:11;98104.69;;;13.39;86.73
14269;BME280;7218;51.480;7.006;2023-03-14T00:50:38;98111.78;;;12.69;92.66
14269;BME280;7218;51.480;7.006;2023-03-14T00:53:05;98120.47;;;13.64;89.91
14269;BME280;7218;51.480;7.006;2023-03-14T00:55:31;98115.78;;;13.16;94.59
14269;BME280;7218;51.480;7.006;2023-03-14T00:57:58;98101.97;;;13.14;96.31
14269;BME280;7218;51.480;7.006;2023-03-14T01:00:24;98098.91;;;13.34;93.70
14269;BME280;7218;51.480;7.006;2023-03-14T01:02:51;98087.59;;;12.92;92.58
14269;BME280;7218;51.480;7.006;2023-03-14T01:05:18;98101.69;;;12.63;94.89
14269;BME280;7218;51.480;7.006;2023-03-14T01:07:45;98109.69;;;13.42;92.20
14269;BME280;7218;51.480;7.006;2023-03-14T01:10:11;98101.59;;;13.20;92.26
14269;BME280;7218;51.480;7.006;2023-03-14T01:12:38;98106.63;;;12.68;92.10
14269;BME280;7218;51.480;7.006;2023-03-14T01:15:05;98104.47;;;12.74;91.98
14269;BME280;7218;51.480;7.006;2023-03-14T01:17:32;98098.44;;;12.86;91.50
14269;BME280;7218;51.480;7.006;2023-03-14T01:19:59;98099.38;;;12.44;92.88
14269;BME280;7218;51.480;7.006;2023-03-14T01:22:27;98102.25;;;12.54;93.59
14269;BME280;7218;51.480;7.006;2023-03-14T01:24:53;98098.56;;;12.71;92.31
14269;BME280;7218;51.480;7.006;2023-03-14T01:27:20;98091.78;;;12.68;91.93
14269;BME280;7218;51.480;7.006;2023-03-14T01:29:46;98098.03;;;12.51;93.25
14269;BME280;7218;51.480;7.006;2023-03-14T01:32:13;98094.78;;;12.48;94.56
14269;BME280;7218;51.480;7.006;2023-03-14T01:34:39;98075.91;;;12.98;91.62
14269;BME280;7218;51.480;7.006;2023-03-14T01:37:06;98091.78;;;12.68;93.07
14269;BME280;7218;51.480;7.006;2023-03-14T01:39:34;98086.25;;;12.73;92.79
14269;BME280;7218;51.480;7.006;2023-03-14T01:42:01;98076.06;;;12.82;92.07
14269;BME280;7218;51.480;7.006;2023-03-14T01:44:27;98090.66;;;13.13;91.73
14269;BME280;7218;51.480;7.006;2023-03-14T01:46:54;98075.97;;;12.84;93.52
14269;BME280;7218;51.480;7.006;2023-03-14T01:49:24;98080.31;;;12.57;94.78
14269;BME280;7218;51.480;7.006;2023-03-14T01:51:55;98077.63;;;12.44;95.79
14269;BME280;7218;51.480;7.006;2023-03-14T01:54:25;98077.25;;;12.50;94.98
14269;BME280;7218;51.480;7.006;2023-03-14T01:56:57;98075.00;;;12.44;94.54
14269;BME280;7218;51.480;7.006;2023-03-14T01:59:27;98078.66;;;12.82;92.51
14269;BME280;7218;51.480;7.006;2023-03-14T02:01:55;98083.19;;;12.66;93.14
14269;BME280;7218;51.480;7.006;2023-03-14T02:04:23;98077.25;;;12.22;94.72
14269;BME280;7218;51.480;7.006;2023-03-14T02:06:53;98071.84;;;12.39;94.21
14269;BME280;7218;51.480;7.006;2023-03-14T02:09:22;98066.22;;;12.86;92.15
14269;BME280;7218;51.480;7.006;2023-03-14T02:11:49;98087.28;;;12.84;91.92
14269;BME280;7218;51.480;7.006;2023-03-14T02:14:27;98054.78;;;12.74;92.32
14269;BME280;7218;51.480;7.006;2023-03-14T02:16:56;98056.69;;;12.58;91.61
14269;BME280;7218;51.480;7.006;2023-03-14T02:19:30;98055.63;;;12.61;91.94
14269;BME280;7218;51.480;7.006;2023-03-14T02:22:05;98058.31;;;13.00;89.91
14269;BME280;7218;51.480;7.006;2023-03-14T02:24:38;98067.25;;;12.42;91.92
14269;BME280;7218;51.480;7.006;2023-03-14T02:27:11;98057.69;;;12.56;91.45
14269;BME280;7218;51.480;7.006;2023-03-14T02:29:42;98052.34;;;12.71;90.43
14269;BME280;7218;51.480;7.006;2023-03-14T02:32:11;98060.72;;;12.35;91.88
14269;BME280;7218;51.480;7.006;2023-03-14T02:34:39;98043.66;;;12.44;92.42
14269;BME280;7218;51.480;7.006;2023-03-14T02:37:09;98056.78;;;12.57;91.75
14269;BME280;7218;51.480;7.006;2023-03-14T02:39:38;98065.22;;;12.88;90.23
14269;BME280;7218;51.480;7.006;2023-03-14T02:42:05;98064.91;;;12.52;92.60
14269;BME280;7218;51.480;7.006;2023-03-14T02:44:33;98062.78;;;12.16;95.22
14269;BME280;7218;51.480;7.006;2023-03-14T02:47:00;98072.94;;;12.21;93.96
14269;BME280;7218;51.480;7.006;2023-03-14T02:49:29;98062.13;;;12.55;92.37
14269;BME280;7218;51.480;7.006;2023-03-14T02:51:58;98072.94;;;12.63;92.29
14269;BME280;7218;51.480;7.006;2023-03-14T02:54:24;98051.97;;;12.22;93.97
14269;BME280;7218;51.480;7.006;2023-03-14T02:56:50;98059.59;;;12.94;91.20
14269;BME280;7218;51.480;7.006;2023-03-14T02:59:17;98052.41;;;12.43;92.26
14269;BME280;7218;51.480;7.006;2023-03-14T03:01:45;98055.31;;;12.38;92.30
14269;BME280;7218;51.480;7.006;2023-03-14T03:04:11;98049.03;;;12.41;92.62
14269;BME280;7218;51.480;7.006;2023-03-14T03:06:37;98046.38;;;12.28;92.70
14269;BME280;7218;51.480;7.006;2023-03-14T03:09:04;98042.25;;;12.79;90.53
14269;BME280;7218;51.480;7.006;2023-03-14T03:11:30;98046.13;;;12.86;89.28
14269;BME280;7218;51.480;7.006;2023-03-14T03:13:57;98036.53;;;12.60;91.07
14269;BME280;7218;51.480;7.006;2023-03-14T03:16:24;98027.75;;;12.47;91.30
14269;BME280;7218;51.480;7.006;2023-03-14T03:18:52;98025.03;;;13.16;88.15
14269;BME280;7218;51.480;7.006;2023-03-14T03:21:18;98015.78;;;12.57;89.68
14269;BME280;7218;51.480;7.006;2023-03-14T03:23:48;98014.13;;;12.42;90.66
14269;BME280;7218;51.480;7.006;2023-03-14T03:26:15;98019.59;;;12.66;89.58
14269;BME280;7218;51.480;7.006;2023-03-14T03:28:41;98008.19;;;12.67;90.43
14269;BME280;7218;51.480;7.006;2023-03-14T03:31:08;98009.91;;;13.07;86.89
14269;BME280;7218;51.480;7.006;2023-03-14T03:33:35;98014.81;;;12.99;87.79
14269;BME280;7218;51.480;7.006;2023-03-14T03:36:04;98002.56;;;13.00;87.90
14269;BME280;7218;51.480;7.006;2023-03-14T03:38:30;98007.41;;;12.79;88.85
14269;BME280;7218;51.480;7.006;2023-03-14T03:40:57;98010.44;;;13.00;87.72
14269;BME280;7218;51.480;7.006;2023-03-14T03:43:23;98022.66;;;12.72;88.43
14269;BME280;7218;51.480;7.006;2023-03-14T03:45:50;98014.66;;;12.61;89.84
14269;BME280;7218;51.480;7.006;2023-03-14T03:48:18;98024.03;;;13.31;86.60
14269;BME280;7218;51.480;7.006;2023-03-14T03:50:45;98020.00;;;12.86;89.11
14269;BME280;7218;51.480;7.006;2023-03-14T03:53:13;98028.81;;;12.44;91.91
14269;BME280;7218;51.480;7.006;2023-03-14T03:55:41;98020.00;;;12.45;94.84
14269;BME280;7218;51.480;7.006;2023-03-14T03:58:08;98015.69;;;12.59;95.42
14269;BME280;7218;51.480;7.006;2023-03-14T04:00:34;98013.56;;;12.10;97.23
14269;BME280;7218;51.480;7.006;2023-03-14T04:03:01;98022.34;;;12.50;96.02
14269;BME280;7218;51.480;7.006;2023-03-14T04:05:27;98020.38;;;12.80;93.61
14269;BME280;7218;51.480;7.006;2023-03-14T04:07:54;98017.97;;;13.04;92.43
14269;BME280;7218;51.480;7.006;2023-03-14T04:10:22;98023.88;;;12.67;93.19
14269;BME280;7218;51.480;7.006;2023-03-14T04:12:48;98020.13;;;12.98;91.65
14269;BME280;7218;51.480;7.006;2023-03-14T04:15:15;98018.88;;;13.30;89.51
14269;BME280;7218;51.480;7.006;2023-03-14T04:17:41;98023.94;;;12.79;91.49
14269;BME280;7218;51.480;7.006;2023-03-14T04:20:08;98017.47;;;13.12;89.80
14269;BME280;7218;51.480;7.006;2023-03-14T04:22:36;98016.44;;;12.87;90.88
14269;BME280;7218;51.480;7.006;2023-03-14T04:25:03;98015.25;;;12.52;92.09
14269;BME280;7218;51.480;7.006;2023-03-14T04:27:31;98015.69;;;12.85;91.74
14269;BME280;7218;51.480;7.006;2023-03-14T04:29:57;98023.06;;;12.52;92.56
14269;BME280;7218;51.480;7.006;2023-03-14T04:32:24;98030.22;;;12.07;94.53
14269;BME280;7218;51.480;7.006;2023-03-14T04:34:50;98016.72;;;11.87;93.81
14269;BME280;7218;51.480;7.006;2023-03-14T04:37:17;98018.63;;;11.69;95.24
14269;BME280;7218;51.480;7.006;2023-03-14T04:39:43;98005.91;;;11.79;95.52
14269;BME280;7218;51.480;7.006;2023-03-14T04:42:10;98002.78;;;12.29;93.00
14269;BME280;7218;51.480;7.006;2023-03-14T04:44:37;98004.69;;;11.98;94.46
14269;BME280;7218;51.480;7.006;2023-03-14T04:47:04;97999.03;;;11.62;96.76
14269;BME280;7218;51.480;7.006;2023-03-14T04:49:30;97994.78;;;12.18;94.93
14269;BME280;7218;51.480;7.006;2023-03-14T04:51:57;98004.59;;;11.42;98.67
14269;BME280;7218;51.480;7.006;2023-03-14T04:54:23;97991.28;;;12.31;94.95
14269;BME280;7218;51.480;7.006;2023-03-14T04:56:50;97997.13;;;12.08;96.56
14269;BME280;7218;51.480;7.006;2023-03-14T04:59:16;97997.41;;;11.75;98.26
14269;BME280;7218;51.480;7.006;2023-03-14T05:01:44;97995.38;;;11.80;98.05
14269;BME280;7218;51.480;7.006;2023-03-14T05:04:10;97987.09;;;11.72;97.60
14269;BME280;7218;51.480;7.006;2023-03-14T05:06:37;97996.38;;;11.78;97.48
14269;BME280;7218;51.480;7.006;2023-03-14T05:09:04;97978.00;;;11.65;97.90
14269;BME280;7218;51.480;7.006;2023-03-14T05:11:31;97989.19;;;11.81;98.34
14269;BME280;7218;51.480;7.006;2023-03-14T05:13:57;97971.66;;;11.97;97.20
14269;BME280;7218;51.480;7.006;2023-03-14T05:16:24;97973.31;;;11.70;98.59
14269;BME280;7218;51.480;7.006;2023-03-14T05:18:52;97974.19;;;11.99;97.42
14269;BME280;7218;51.480;7.006;2023-03-14T05:21:18;97960.16;;;11.72;99.83
14269;BME280;7218;51.480;7.006;2023-03-14T05:23:44;97964.75;;;11.54;100.00
14269;BME280;7218;51.480;7.006;2023-03-14T05:26:11;97960.25;;;11.42;100.00
14269;BME280;7218;51.480;7.006;2023-03-14T05:28:37;97956.34;;;11.91;99.41
14269;BME280;7218;51.480;7.006;2023-03-14T05:31:18;97944.13;;;11.49;100.00
14269;BME280;7218;51.480;7.006;2023-03-14T05:33:44;97950.03;;;11.81;99.93
14269;BME280;7218;51.480;7.006;2023-03-14T05:36:12;97945.13;;;11.18;100.00
14269;BME280;7218;51.480;7.006;2023-03-14T05:38:39;97943.84;;;11.68;100.00
14269;BME280;7218;51.480;7.006;2023-03-14T05:41:06;97940.31;;;11.97;99.75
14269;BME280;7218;51.480;7.006;2023-03-14T05:43:32;97934.44;;;11.94;100.00
14269;BME280;7218;51.480;7.006;2023-03-14T05:45:59;97947.69;;;11.77;100.00
14269;BME280;7218;51.480;7.006;2023-03-14T05:48:26;97938.16;;;12.45;97.68
14269;BME280;7218;51.480;7.006;2023-03-14T05:50:54;97938.69;;;12.23;98.70
14269;BME280;7218;51.480;7.006;2023-03-14T05:53:22;97927.59;;;12.46;97.78
14269;BME280;7218;51.480;7.006;2023-03-14T05:55:51;97928.28;;;12.36;98.48
14269;BME280;7218;51.480;7.006;2023-03-14T05:58:17;97928.44;;;12.20;99.29
14269;BME280;7218;51.480;7.006;2023-03-14T06:00:44;97926.97;;;12.43;97.59
14269;BME280;7218;51.480;7.006;2023-03-14T06:03:10;97929.50;;;12.57;97.27
14269;BME280;7218;51.480;7.006;2023-03-14T06:05:37;97925.56;;;12.64;96.64
14269;BME280;7218;51.480;7.006;2023-03-14T06:08:04;97925.63;;;12.50;97.83
14269;BME280;7218;51.480;7.006;2023-03-14T06:10:32;97929.13;;;12.36;98.28
14269;BME280;7218;51.480;7.006;2023-03-14T06:12:59;97925.47;;;12.39;98.51
14269;BME280;7218;51.480;7.006;2023-03-14T06:15:25;97924.50;;;12.54;98.03
14269;BME280;7218;51.480;7.006;2023-03-14T06:17:53;97927.75;;;12.58;97.81
14269;BME280;7218;51.480;7.006;2023-03-14T06:20:20;97929.66;;;12.68;97.79
14269;BME280;7218;51.480;7.006;2023-03-14T06:22:47;97922.94;;;13.04;96.31
14269;BME280;7218;51.480;7.006;2023-03-14T06:25:13;97929.81;;;12.92;96.23
14269;BME280;7218;51.480;7.006;2023-03-14T06:27:41;97934.06;;;12.80;97.08
14269;BME280;7218;51.480;7.006;2023-03-14T06:30:09;97941.75;;;12.30;99.33
14269;BME280;7218;51.480;7.006;2023-03-14T06:32:35;97943.28;;;12.46;99.01
14269;BME280;7218;51.480;7.006;2023-03-14T06:35:02;97939.03;;;12.31;99.53
14269;BME280;7218;51.480;7.006;2023-03-14T06:37:29;97937.84;;;12.76;97.92
14269;BME280;7218;51.480;7.006;2023-03-14T06:39:56;97938.16;;;13.11;96.44
14269;BME280;7218;51.480;7.006;2023-03-14T06:42:22;97941.03;;;12.14;100.00
14269;BME280;7218;51.480;7.006;2023-03-14T06:44:50;97940.78;;;12.04;100.00
14269;BME280;7218;51.480;7.006;2023-03-14T06:47:17;97949.09;;;12.37;100.00
14269;BME280;7218;51.480;7.006;2023-03-14T06:49:43;97946.63;;;12.48;100.00
14269;BME280;7218;51.480;7.006;2023-03-14T06:52:09;97951.63;;;12.39;99.55
14269;BME280;7218;51.480;7.006;2023-03-14T06:54:36;97947.50;;;11.94;100.00
14269;BME280;7218;51.480;7.006;2023-03-14T06:57:03;97940.28;;;12.12;100.00
14269;BME280;7218;51.480;7.006;2023-03-14T06:59:29;97937.50;;;12.41;100.00
14269;BME280;7218;51.480;7.006;2023-03-14T07:01:57;97944.13;;;12.06;100.00
14269;BME280;7218;51.480;7.006;2023-03-14T07:04:23;97948.28;;;12.23;100.00
14269;BME280;7218;51.480;7.006;2023-03-14T07:06:50;97951.13;;;12.86;98.67
14269;BME280;7218;51.480;7.006;2023-03-14T07:09:16;97933.59;;;12.88;97.65
14269;BME280;7218;51.480;7.006;2023-03-14T07:11:43;97947.34;;;12.65;99.61
14269;BME280;7218;51.480;7.006;2023-03-14T07:14:09;97939.25;;;12.94;97.37
14269;BME280;7218;51.480;7.006;2023-03-14T07:16:37;97943.41;;;12.84;99.25
14269;BME280;7218;51.480;7.006;2023-03-14T07:19:04;97962.19;;;13.04;98.04
14269;BME280;7218;51.480;7.006;2023-03-14T07:21:31;97945.72;;;12.89;98.24
14269;BME280;7218;51.480;7.006;2023-03-14T07:24:00;97957.34;;;13.24;96.50
14269;BME280;7218;51.480;7.006;2023-03-14T07:26:26;97954.06;;;12.81;98.29
14269;BME280;7218;51.480;7.006;2023-03-14T07:28:53;97943.13;;;13.02;97.16
14269;BME280;7218;51.480;7.006;2023-03-14T07:31:19;97944.88;;;13.66;93.56
14269;BME280;7218;51.480;7.006;2023-03-14T07:33:46;97955.97;;;12.92;96.96
14269;BME280;7218;51.480;7.006;2023-03-14T07:36:14;97964.22;;;12.32;100.00
14269;BME280;7218;51.480;7.006;2023-03-14T07:38:40;97948.16;;;12.65;98.83
14269;BME280;7218;51.480;7.006;2023-03-14T07:41:07;97952.56;;;12.65;99.57
14269;BME280;7218;51.480;7.006;2023-03-14T07:43:33;97967.63;;;12.47;100.00
14269;BME280;7218;51.480;7.006;2023-03-14T07:46:00;97964.50;;;13.08;96.99
14269;BME280;7218;51.480;7.006;2023-03-14T07:48:27;97971.00;;;12.49;100.00
14269;BME280;7218;51.480;7.006;2023-03-14T07:50:54;97972.50;;;12.80;99.26
14269;BME280;7218;51.480;7.006;2023-03-14T07:53:23;97966.25;;;12.41;100.00
14269;BME280;7218;51.480;7.006;2023-03-14T07:55:50;97959.44;;;13.45;97.58
14269;BME280;7218;51.480;7.006;2023-03-14T07:58:18;97971.44;;;12.82;99.97
14269;BME280;7218;51.480;7.006;2023-03-14T08:00:44;97969.78;;;12.55;100.00
14269;BME280;7218;51.480;7.006;2023-03-14T08:03:11;97975.81;;;12.28;100.00
14269;BME280;7218;51.480;7.006;2023-03-14T08:05:38;97979.97;;;12.45;100.00
14269;BME280;7218;51.480;7.006;2023-03-14T08:08:05;97977.53;;;12.42;100.00
14269;BME280;7218;51.480;7.006;2023-03-14T08:10:33;97973.72;;;12.74;100.00
14269;BME280;7218;51.480;7.006;2023-03-14T08:13:00;97973.63;;;12.49;100.00
14269;BME280;7218;51.480;7.006;2023-03-14T08:15:29;97985.22;;;12.31;100.00
14269;BME280;7218;51.480;7.006;2023-03-14T08:17:56;97987.16;;;12.41;100.00
14269;BME280;7218;51.480;7.006;2023-03-14T08:20:24;97986.31;;;12.41;100.00
14269;BME280;7218;51.480;7.006;2023-03-14T08:22:51;97980.75;;;12.33;100.00
14269;BME280;7218;51.480;7.006;2023-03-14T08:25:18;98000.84;;;12.18;100.00
14269;BME280;7218;51.480;7.006;2023-03-14T08:27:46;97992.13;;;12.32;100.00
14269;BME280;7218;51.480;7.006;2023-03-14T08:30:14;97982.97;;;12.92;100.00
14269;BME280;7218;51.480;7.006;2023-03-14T08:32:41;97982.69;;;12.70;100.00
14269;BME280;7218;51.480;7.006;2023-03-14T08:35:09;97978.06;;;13.40;100.00
14269;BME280;7218;51.480;7.006;2023-03-14T08:37:35;97973.03;;;13.75;100.00
14269;BME280;7218;51.480;7.006;2023-03-14T08:40:03;97982.38;;;13.02;100.00
14269;BME280;7218;51.480;7.006;2023-03-14T08:42:31;97981.03;;;13.09;100.00
14269;BME280;7218;51.480;7.006;2023-03-14T08:44:59;97981.00;;;13.48;100.00
14269;BME280;7218;51.480;7.006;2023-03-14T08:47:26;97978.41;;;13.48;100.00
14269;BME280;7218;51.480;7.006;2023-03-14T08:49:54;97982.75;;;12.95;100.00
14269;BME280;7218;51.480;7.006;2023-03-14T08:52:27;97996.97;;;12.79;100.00
14269;BME280;7218;51.480;7.006;2023-03-14T08:54:55;97992.97;;;13.40;100.00
14269;BME280;7218;51.480;7.006;2023-03-14T08:57:22;97991.94;;;13.15;100.00
14269;BME280;7218;51.480;7.006;2023-03-14T08:59:52;97996.28;;;13.42;100.00
14269;BME280;7218;51.480;7.006;2023-03-14T09:02:20;98000.59;;;13.55;100.00
14269;BME280;7218;51.480;7.006;2023-03-14T09:04:47;98002.38;;;13.03;100.00
14269;BME280;7218;51.480;7.006;2023-03-14T09:07:13;98001.13;;;13.73;99.16
14269;BME280;7218;51.480;7.006;2023-03-14T09:09:40;98001.94;;;13.35;100.00
14269;BME280;7218;51.480;7.006;2023-03-14T09:12:06;98008.25;;;12.79;100.00
14269;BME280;7218;51.480;7.006;2023-03-14T09:14:33;98021.63;;;13.41;99.10
14269;BME280;7218;51.480;7.006;2023-03-14T09:16:59;98028.97;;;13.09;100.00
14269;BME280;7218;51.480;7.006;2023-03-14T09:19:27;98034.13;;;12.84;100.00
14269;BME280;7218;51.480;7.006;2023-03-14T09:21:54;98058.72;;;13.60;97.03
14269;BME280;7218;51.480;7.006;2023-03-14T09:24:20;98095.06;;;13.40;98.95
14269;BME280;7218;51.480;7.006;2023-03-14T09:26:47;98122.78;;;12.46;94.01
14269;BME280;7218;51.480;7.006;2023-03-14T09:29:13;98122.44;;;12.24;92.20
14269;BME280;7218;51.480;7.006;2023-03-14T09:31:40;98139.59;;;12.84;90.61
14269;BME280;7218;51.480;7.006;2023-03-14T09:34:07;98144.53;;;12.75;90.36
14269;BME280;7218;51.480;7.006;2023-03-14T09:36:34;98146.50;;;12.71;90.42
14269;BME280;7218;51.480;7.006;2023-03-14T09:39:03;98156.59;;;12.49;90.39
14269;BME280;7218;51.480;7.006;2023-03-14T09:41:31;98175.63;;;12.93;89.82
14269;BME280;7218;51.480;7.006;2023-03-14T09:44:03;98180.63;;;13.11;88.17
14269;BME280;7218;51.480;7.006;2023-03-14T09:46:32;98199.28;;;11.76;93.46
14269;BME280;7218;51.480;7.006;2023-03-14T09:49:01;98208.97;;;12.33;91.80
14269;BME280;7218;51.480;7.006;2023-03-14T09:51:28;98210.19;;;12.56;90.31
14269;BME280;7218;51.480;7.006;2023-03-14T09:53:56;98221.28;;;12.45;92.25
14269;BME280;7218;51.480;7.006;2023-03-14T09:56:25;98240.69;;;12.41;90.84
14269;BME280;7218;51.480;7.006;2023-03-14T09:58:56;98249.63;;;12.23;90.85
14269;BME280;7218;51.480;7.006;2023-03-14T10:01:26;98274.38;;;12.32;90.62
14269;BME280;7218;51.480;7.006;2023-03-14T10:03:54;98268.47;;;12.58;89.17
14269;BME280;7218;51.480;7.006;2023-03-14T10:06:23;98283.25;;;11.99;90.42
14269;BME280;7218;51.480;7.006;2023-03-14T10:08:51;98281.16;;;11.90;90.37
14269;BME280;7218;51.480;7.006;2023-03-14T10:11:19;98295.16;;;12.19;89.09
14269;BME280;7218;51.480;7.006;2023-03-14T10:14:01;98313.75;;;11.99;91.52
14269;BME280;7218;51.480;7.006;2023-03-14T10:16:29;98315.00;;;12.37;89.54
14269;BME280;7218;51.480;7.006;2023-03-14T10:19:02;98317.03;;;12.32;88.86
14269;BME280;7218;51.480;7.006;2023-03-14T10:21:30;98320.56;;;11.70;91.35
14269;BME280;7218;51.480;7.006;2023-03-14T10:24:09;98337.44;;;12.26;89.36
14269;BME280;7218;51.480;7.006;2023-03-14T10:26:37;98359.19;;;12.26;88.64
14269;BME280;7218;51.480;7.006;2023-03-14T10:29:10;98352.19;;;12.27;88.77
14269;BME280;7218;51.480;7.006;2023-03-14T10:31:47;98366.50;;;12.35;88.90
14269;BME280;7218;51.480;7.006;2023-03-14T10:34:17;98378.03;;;12.01;90.76
14269;BME280;7218;51.480;7.006;2023-03-14T10:36:52;98416.81;;;11.28;94.35
14269;BME280;7218;51.480;7.006;2023-03-14T10:39:38;98415.88;;;11.29;92.90
14269;BME280;7218;51.480;7.006;2023-03-14T10:42:18;98435.66;;;11.50;90.40
14269;BME280;7218;51.480;7.006;2023-03-14T10:44:46;98450.31;;;11.85;88.33
14269;BME280;7218;51.480;7.006;2023-03-14T10:47:19;98458.59;;;12.25;85.81
14269;BME280;7218;51.480;7.006;2023-03-14T10:49:48;98482.72;;;11.81;86.79
14269;BME280;7218;51.480;7.006;2023-03-14T10:52:20;98498.84;;;11.89;84.30
14269;BME280;7218;51.480;7.006;2023-03-14T10:54:49;98509.44;;;11.19;86.89
14269;BME280;7218;51.480;7.006;2023-03-14T10:57:21;98533.81;;;11.52;83.95
14269;BME280;7218;51.480;7.006;2023-03-14T10:59:47;98533.22;;;11.64;83.61
14269;BME280;7218;51.480;7.006;2023-03-14T11:02:31;98547.09;;;11.13;84.43
14269;BME280;7218;51.480;7.006;2023-03-14T11:05:07;98576.00;;;11.45;83.58
14269;BME280;7218;51.480;7.006;2023-03-14T11:07:40;98571.00;;;11.40;82.61
14269;BME280;7218;51.480;7.006;2023-03-14T11:10:14;98593.72;;;11.38;82.33
14269;BME280;7218;51.480;7.006;2023-03-14T11:12:51;98595.50;;;11.55;79.93
14269;BME280;7218;51.480;7.006;2023-03-14T11:15:25;98597.91;;;11.41;78.21
14269;BME280;7218;51.480;7.006;2023-03-14T11:18:12;98614.47;;;11.93;76.41
14269;BME280;7218;51.480;7.006;2023-03-14T11:20:44;98629.56;;;11.69;77.61
14269;BME280;7218;51.480;7.006;2023-03-14T11:23:14;98652.75;;;11.58;78.31
14269;BME280;7218;51.480;7.006;2023-03-14T11:25:48;98654.19;;;11.46;78.86
14269;BME280;7218;51.480;7.006;2023-03-14T11:28:23;98675.22;;;11.07;79.45
14269;BME280;7218;51.480;7.006;2023-03-14T11:30:53;98672.88;;;11.01;79.52
14269;BME280;7218;51.480;7.006;2023-03-14T11:33:22;98684.53;;;11.66;76.51
14269;BME280;7218;51.480;7.006;2023-03-14T11:35:57;98683.91;;;11.61;77.33
14269;BME280;7218;51.480;7.006;2023-03-14T11:38:30;98696.97;;;12.14;75.66
14269;BME280;7218;51.480;7.006;2023-03-14T11:41:01;98712.97;;;11.72;76.31
14269;BME280;7218;51.480;7.006;2023-03-14T11:43:32;98718.72;;;11.97;74.73
14269;BME280;7218;51.480;7.006;2023-03-14T11:46:04;98714.25;;;12.17;75.46
14269;BME280;7218;51.480;7.006;2023-03-14T11:48:37;98730.63;;;12.20;73.97
14269;BME280;7218;51.480;7.006;2023-03-14T11:51:10;98738.53;;;11.84;72.64
14269;BME280;7218;51.480;7.006;2023-03-14T11:53:45;98752.03;;;11.56;74.18
14269;BME280;7218;51.480;7.006;2023-03-14T11:56:19;98758.06;;;12.29;74.57
14269;BME280;7218;51.480;7.006;2023-03-14T11:58:57;98761.19;;;12.52;69.61
14269;BME280;7218;51.480;7.006;2023-03-14T12:01:30;98763.66;;;12.88;69.23
14269;BME280;7218;51.480;7.006;2023-03-14T12:04:04;98784.81;;;11.81;70.71
14269;BME280;7218;51.480;7.006;2023-03-14T12:06:35;98790.66;;;12.22;71.23
14269;BME280;7218;51.480;7.006;2023-03-14T12:09:06;98788.03;;;12.39;72.11
14269;BME280;7218;51.480;7.006;2023-03-14T12:11:36;98783.56;;;12.58;67.77
14269;BME280;7218;51.480;7.006;2023-03-14T12:14:17;98789.06;;;13.35;63.87
14269;BME280;7218;51.480;7.006;2023-03-14T12:16:46;98798.72;;;13.66;64.31
14269;BME280;7218;51.480;7.006;2023-03-14T12:19:31;98806.94;;;13.44;61.09
14269;BME280;7218;51.480;7.006;2023-03-14T12:22:06;98798.19;;;14.66;57.44
14269;BME280;7218;51.480;7.006;2023-03-14T12:24:35;98811.63;;;15.04;56.30
14269;BME280;7218;51.480;7.006;2023-03-14T12:27:04;98820.72;;;14.25;56.01
14269;BME280;7218;51.480;7.006;2023-03-14T12:29:32;98823.81;;;14.31;55.49
14269;BME280;7218;51.480;7.006;2023-03-14T12:32:20;98826.34;;;13.71;55.98
14269;BME280;7218;51.480;7.006;2023-03-14T12:34:48;98835.97;;;14.18;58.10
14269;BME280;7218;51.480;7.006;2023-03-14T12:37:26;98850.75;;;14.19;58.97
14269;BME280;7218;51.480;7.006;2023-03-14T12:40:06;98859.06;;;13.96;58.88
14269;BME280;7218;51.480;7.006;2023-03-14T12:42:43;98871.03;;;12.70;62.77
14269;BME280;7218;51.480;7.006;2023-03-14T12:45:28;98886.38;;;12.05;62.56
14269;BME280;7218;51.480;7.006;2023-03-14T12:48:01;98905.78;;;12.19;66.03
14269;BME280;7218;51.480;7.006;2023-03-14T12:50:36;98919.09;;;11.38;72.54
14269;BME280;7218;51.480;7.006;2023-03-14T12:53:46;98942.72;;;11.35;73.46
14269;BME280;7218;51.480;7.006;2023-03-14T12:56:22;98956.41;;;10.79;75.22
14269;BME280;7218;51.480;7.006;2023-03-14T12:59:02;98957.19;;;11.21;72.93
14269;BME280;7218;51.480;7.006;2023-03-14T13:01:35;98968.28;;;11.06;73.42
14269;BME280;7218;51.480;7.006;2023-03-14T13:04:07;98981.84;;;10.74;75.32
14269;BME280;7218;51.480;7.006;2023-03-14T13:06:47;98976.09;;;12.42;70.55
14269;BME280;7218;51.480;7.006;2023-03-14T13:12:27;98992.28;;;13.88;62.62
14269;BME280;7218;51.480;7.006;2023-03-14T13:14:58;99001.88;;;12.68;64.26
14269;BME280;7218;51.480;7.006;2023-03-14T13:17:30;99009.25;;;12.41;68.27
14269;BME280;7218;51.480;7.006;2023-03-14T13:20:00;99019.41;;;11.71;69.55
14269;BME280;7218;51.480;7.006;2023-03-14T13:22:32;99022.78;;;11.54;71.67